Time;durP1;ratioP1;P1;durP2;ratioP2;P2;SDS_P1;SDS_P2;PMS_P1;PMS_P2;Temp;Humidity;BMP_temperature;BMP_pressure;BME280_temperature;BME280_humidity;BME280_pressure;Samples;Min_cycle;Max_cycle;Signal;HPM_P1;HPM_P2
2021/05/19 00:01:20;;;;;;;1999.90;999.90;;;;;;;9.30;93.41;95512.50;5073061;28;20200;-60
2021/05/19 00:03:47;;;;;;;1999.90;999.90;;;;;;;9.26;92.82;95508.97;5073336;28;20253;-61
2021/05/19 00:06:14;;;;;;;1999.90;999.90;;;;;;;9.23;93.19;95513.91;5073041;28;20679;-62
2021/05/19 00:08:41;;;;;;;1999.90;999.90;;;;;;;9.27;93.45;95518.25;5073517;28;20206;-61
2021/05/19 00:11:08;;;;;;;1999.90;999.90;;;;;;;9.22;93.58;95518.34;5073440;28;20201;-61
2021/05/19 00:13:36;;;;;;;1999.90;999.90;;;;;;;9.30;93.06;95522.13;5072892;28;20232;-60
2021/05/19 00:16:06;;;;;;;1999.90;999.90;;;;;;;9.30;92.50;95515.13;5072968;28;20220;-61
2021/05/19 00:18:34;;;;;;;1999.90;999.90;;;;;;;9.16;93.46;95514.31;5073056;28;20235;-61
2021/05/19 00:21:02;;;;;;;1999.90;999.90;;;;;;;9.19;93.71;95518.91;5072618;28;20694;-61
2021/05/19 00:23:28;;;;;;;1999.90;999.90;;;;;;;9.12;93.79;95521.09;5073054;28;20279;-62
2021/05/19 00:25:55;;;;;;;1999.90;999.90;;;;;;;9.08;93.64;95522.69;5073116;28;20257;-59
2021/05/19 00:28:22;;;;;;;1999.90;999.90;;;;;;;9.10;94.90;95509.47;5072763;28;20322;-61
2021/05/19 00:30:52;;;;;;;1999.90;999.90;;;;;;;8.87;94.96;95517.03;5072557;28;20667;-60
2021/05/19 00:33:19;;;;;;;1999.90;999.90;;;;;;;8.67;95.33;95511.41;5072739;28;20694;-61
2021/05/19 00:35:47;;;;;;;1999.90;999.90;;;;;;;8.57;95.85;95507.09;5072577;28;20192;-61
2021/05/19 00:38:14;;;;;;;1999.90;999.90;;;;;;;8.66;95.93;95504.69;5072564;28;20196;-61
2021/05/19 00:40:41;;;;;;;1999.90;999.90;;;;;;;8.71;96.57;95513.16;5072630;28;20236;-60
2021/05/19 00:43:08;;;;;;;1999.90;999.90;;;;;;;8.80;97.38;95508.09;5072305;28;20577;-62
2021/05/19 00:45:36;;;;;;;1999.90;999.90;;;;;;;8.94;98.03;95508.91;5072695;28;20239;-61
2021/05/19 00:48:09;;;;;;;1999.90;999.90;;;;;;;8.93;97.91;95510.75;5072693;28;20591;-61
2021/05/19 00:50:37;;;;;;;1999.90;999.90;;;;;;;8.80;98.01;95501.09;5072371;28;20196;-60
2021/05/19 00:53:05;;;;;;;1999.90;999.90;;;;;;;8.73;98.29;95502.47;5072054;28;20310;-61
2021/05/19 00:55:32;;;;;;;1999.90;999.90;;;;;;;8.82;98.45;95498.97;5072017;28;20283;-60
2021/05/19 00:57:59;;;;;;;1999.90;999.90;;;;;;;8.84;98.95;95511.66;5072408;28;20197;-60
2021/05/19 01:00:27;;;;;;;1999.90;999.90;;;;;;;8.88;99.63;95500.44;5071962;28;20193;-62
2021/05/19 01:02:55;;;;;;;1999.90;999.90;;;;;;;8.93;98.74;95513.34;5072278;28;20242;-61
2021/05/19 01:05:27;;;;;;;1999.90;999.90;;;;;;;8.92;98.71;95511.00;5072033;28;20228;-62
2021/05/19 01:10:40;;;;;;;1999.90;999.90;;;;;;;8.86;99.04;95514.75;5071899;28;20294;-61
2021/05/19 01:13:07;;;;;;;1999.90;999.90;;;;;;;8.81;99.27;95512.22;5071243;28;20266;-61
2021/05/19 01:15:35;;;;;;;1999.90;999.90;;;;;;;8.78;99.24;95502.41;5071839;28;20284;-61
2021/05/19 01:18:03;;;;;;;1999.90;999.90;;;;;;;8.70;98.14;95511.59;5071680;28;20678;-60
2021/05/19 01:20:30;;;;;;;1999.90;999.90;;;;;;;8.63;97.85;95506.75;5071666;28;20707;-62
2021/05/19 01:22:58;;;;;;;1999.90;999.90;;;;;;;8.64;98.80;95510.91;5071588;28;20192;-61
2021/05/19 01:25:25;;;;;;;1999.90;999.90;;;;;;;8.67;98.72;95506.97;5071339;28;20196;-61
2021/05/19 01:27:53;;;;;;;1999.90;999.90;;;;;;;8.69;99.36;95502.28;5071860;28;20269;-59
2021/05/19 01:30:21;;;;;;;1999.90;999.90;;;;;;;8.77;98.85;95508.63;5071556;28;20283;-61
2021/05/19 01:32:48;;;;;;;1999.90;999.90;;;;;;;8.78;98.88;95512.78;5071635;28;20270;-61
2021/05/19 01:35:15;;;;;;;1999.90;999.90;;;;;;;8.77;98.61;95506.81;5071318;28;20193;-62
2021/05/19 01:37:44;;;;;;;1999.90;999.90;;;;;;;8.78;98.43;95502.41;5071592;28;20196;-61
2021/05/19 01:40:14;;;;;;;1999.90;999.90;;;;;;;8.76;98.46;95501.94;5071565;28;20228;-61
2021/05/19 01:42:42;;;;;;;1999.90;999.90;;;;;;;8.81;98.24;95501.88;5071376;28;20200;-61
2021/05/19 01:45:10;;;;;;;1999.90;999.90;;;;;;;8.58;97.57;95499.06;5071192;28;20300;-60
2021/05/19 01:47:41;;;;;;;1999.90;999.90;;;;;;;8.22;95.69;95498.72;5071075;28;20197;-61
2021/05/19 01:50:11;;;;;;;1999.90;999.90;;;;;;;8.12;95.52;95508.41;5071416;28;20197;-60
2021/05/19 01:52:39;;;;;;;1999.90;999.90;;;;;;;8.13;95.51;95512.53;5070993;28;20600;-61
2021/05/19 01:55:08;;;;;;;1999.90;999.90;;;;;;;7.88;96.83;95515.41;5071311;28;20224;-60
2021/05/19 01:57:36;;;;;;;1999.90;999.90;;;;;;;7.88;97.74;95518.00;5070966;28;20195;-60
2021/05/19 02:00:07;;;;;;;1999.90;999.90;;;;;;;7.92;98.53;95512.00;5070916;28;20188;-62
2021/05/19 02:02:35;;;;;;;1999.90;999.90;;;;;;;7.88;99.05;95495.50;5070869;28;20200;-62
2021/05/19 02:05:03;;;;;;;1999.90;999.90;;;;;;;7.73;100.00;95506.78;5070863;28;20216;-61
2021/05/19 02:07:30;;;;;;;1999.90;999.90;;;;;;;7.73;100.00;95511.16;5070820;28;20270;-61
2021/05/19 02:09:57;;;;;;;1999.90;999.90;;;;;;;7.72;100.00;95507.81;5070746;28;20335;-60
2021/05/19 02:12:24;;;;;;;1999.90;999.90;;;;;;;7.57;100.00;95500.19;5070608;28;20220;-61
2021/05/19 02:14:51;;;;;;;1999.90;999.90;;;;;;;7.46;100.00;95503.16;5070673;28;20711;-61
2021/05/19 02:17:18;;;;;;;1999.90;999.90;;;;;;;7.57;100.00;95500.19;5070898;28;20218;-60
2021/05/19 02:19:45;;;;;;;1999.90;999.90;;;;;;;7.57;100.00;95497.63;5070208;28;20196;-61
2021/05/19 02:22:12;;;;;;;1999.90;999.90;;;;;;;7.38;100.00;95509.69;5070915;28;20204;-61
2021/05/19 02:24:38;;;;;;;1999.90;999.90;;;;;;;7.38;100.00;95501.94;5070488;28;20291;-61
2021/05/19 02:27:06;;;;;;;1999.90;999.90;;;;;;;7.40;100.00;95499.09;5070980;28;20197;-60
2021/05/19 02:29:32;;;;;;;1999.90;999.90;;;;;;;7.34;100.00;95506.09;5070568;28;20201;-61
2021/05/19 02:32:00;;;;;;;1999.90;999.90;;;;;;;7.46;100.00;95491.03;5070264;28;20231;-60
2021/05/19 02:34:27;;;;;;;1999.90;999.90;;;;;;;7.52;100.00;95492.50;5070671;28;20307;-60
2021/05/19 02:36:54;;;;;;;1999.90;999.90;;;;;;;7.50;100.00;95489.44;5070919;28;20635;-61
2021/05/19 02:39:21;;;;;;;1999.90;999.90;;;;;;;7.53;100.00;95483.69;5070324;28;20392;-61
2021/05/19 02:41:49;;;;;;;1999.90;999.90;;;;;;;7.59;100.00;95487.00;5070416;28;20200;-60
2021/05/19 02:44:16;;;;;;;1999.90;999.90;;;;;;;7.72;100.00;95484.53;5070379;28;20253;-61
2021/05/19 02:46:42;;;;;;;1999.90;999.90;;;;;;;7.75;100.00;95478.06;5070616;28;20193;-62
2021/05/19 02:49:10;;;;;;;1999.90;999.90;;;;;;;7.70;100.00;95478.09;5070326;28;20199;-61
2021/05/19 02:51:38;;;;;;;1999.90;999.90;;;;;;;7.73;100.00;95478.31;5070166;28;20654;-61
2021/05/19 02:54:06;;;;;;;1999.90;999.90;;;;;;;7.66;100.00;95477.88;5070565;28;20220;-61
2021/05/19 02:56:33;;;;;;;1999.90;999.90;;;;;;;7.65;100.00;95476.34;5070023;28;20192;-59
2021/05/19 02:59:00;;;;;;;1999.90;999.90;;;;;;;7.58;100.00;95480.28;5070074;28;20561;-60
2021/05/19 03:01:26;;;;;;;1999.90;999.90;;;;;;;7.57;100.00;95489.84;5070268;28;20192;-61
2021/05/19 03:03:53;;;;;;;1999.90;999.90;;;;;;;7.48;100.00;95488.91;5069973;28;20208;-60
2021/05/19 03:06:22;;;;;;;1999.90;999.90;;;;;;;7.47;100.00;95492.53;5070107;28;20192;-60
2021/05/19 03:08:49;;;;;;;1999.90;999.90;;;;;;;7.49;100.00;95507.78;5070215;28;20280;-60
2021/05/19 03:11:16;;;;;;;1999.90;999.90;;;;;;;7.43;100.00;95509.66;5070012;28;20196;-61
2021/05/19 03:13:43;;;;;;;1999.90;999.90;;;;;;;7.41;100.00;95506.56;5069357;28;20715;-61
2021/05/19 03:16:09;;;;;;;1999.90;999.90;;;;;;;7.41;100.00;95510.97;5070182;28;20621;-61
2021/05/19 03:18:36;;;;;;;1999.90;999.90;;;;;;;7.41;100.00;95511.75;5069898;28;20193;-60
2021/05/19 03:21:04;;;;;;;1999.90;999.90;;;;;;;7.48;100.00;95509.59;5069770;28;20220;-61
2021/05/19 03:23:31;;;;;;;1999.90;999.90;;;;;;;7.48;100.00;95507.00;5069817;28;20193;-61
2021/05/19 03:25:58;;;;;;;1999.90;999.90;;;;;;;7.56;100.00;95503.06;5069658;28;20196;-62
2021/05/19 03:28:25;;;;;;;1999.90;999.90;;;;;;;7.53;100.00;95499.22;5069801;28;20927;-61
2021/05/19 03:30:53;;;;;;;1999.90;999.90;;;;;;;7.65;100.00;95494.44;5071683;28;20232;-60
2021/05/19 03:33:20;;;;;;;1999.90;999.90;;;;;;;7.93;100.00;95498.03;5073773;28;20224;-61
2021/05/19 03:35:47;;;;;;;1999.90;999.90;;;;;;;8.26;100.00;95511.13;5073939;28;20628;-61
2021/05/19 03:38:14;;;;;;;1999.90;999.90;;;;;;;8.27;100.00;95504.91;5073841;28;20560;-61
2021/05/19 03:40:42;;;;;;;1999.90;999.90;;;;;;;8.23;100.00;95507.25;5073598;28;20270;-61
2021/05/19 03:43:09;;;;;;;1999.90;999.90;;;;;;;8.35;100.00;95515.44;5073505;28;20196;-60
2021/05/19 03:45:36;;;;;;;1999.90;999.90;;;;;;;8.29;100.00;95513.91;5073873;28;20288;-61
2021/05/19 03:48:04;;;;;;;1999.90;999.90;;;;;;;8.39;100.00;95513.03;5073411;28;20196;-61
2021/05/19 03:50:31;;;;;;;1999.90;999.90;;;;;;;8.45;100.00;95510.13;5073351;28;20192;-61
2021/05/19 03:52:59;;;;;;;1999.90;999.90;;;;;;;8.45;100.00;95494.59;5073242;28;20275;-60
2021/05/19 03:55:27;;;;;;;1999.90;999.90;;;;;;;8.55;100.00;95504.03;5073790;28;20196;-61
2021/05/19 03:57:55;;;;;;;1999.90;999.90;;;;;;;8.71;100.00;95507.97;5073167;28;20197;-61
2021/05/19 04:00:25;;;;;;;1999.90;999.90;;;;;;;8.77;100.00;95509.41;5073378;28;20243;-60
2021/05/19 04:02:52;;;;;;;1999.90;999.90;;;;;;;8.89;100.00;95499.41;5073462;28;20219;-59
2021/05/19 04:05:20;;;;;;;1999.90;999.90;;;;;;;9.02;100.00;95498.69;5073172;28;20686;-61
2021/05/19 04:07:49;;;;;;;1999.90;999.90;;;;;;;9.09;100.00;95493.16;5073436;28;20660;-60
2021/05/19 04:10:16;;;;;;;1999.90;999.90;;;;;;;9.12;100.00;95504.75;5073210;28;20197;-59
2021/05/19 04:12:43;;;;;;;1999.90;999.90;;;;;;;9.27;100.00;95507.88;5073040;28;20224;-61
2021/05/19 04:15:12;;;;;;;1999.90;999.90;;;;;;;9.27;100.00;95497.50;5072629;28;20228;-62
2021/05/19 04:17:39;;;;;;;1999.90;999.90;;;;;;;9.46;100.00;95495.63;5073122;28;20192;-61
2021/05/19 04:20:07;;;;;;;1999.90;999.90;;;;;;;9.63;100.00;95500.28;5072887;28;20303;-62
2021/05/19 04:22:34;;;;;;;1999.90;999.90;;;;;;;9.73;100.00;95501.91;5072698;28;20570;-61
2021/05/19 04:25:01;;;;;;;1999.90;999.90;;;;;;;10.08;100.00;95496.06;5072722;28;20613;-59
2021/05/19 04:27:27;;;;;;;1999.90;999.90;;;;;;;10.43;100.00;95499.03;5072974;28;20228;-62
2021/05/19 04:29:54;;;;;;;1999.90;999.90;;;;;;;11.00;97.56;95507.94;5072735;28;20259;-61
2021/05/19 04:32:22;;;;;;;1999.90;999.90;;;;;;;11.16;95.65;95516.91;5072795;28;20217;-61
2021/05/19 04:34:49;;;;;;;1999.90;999.90;;;;;;;11.93;91.88;95522.59;5072913;28;20270;-63
2021/05/19 04:37:16;;;;;;;1999.90;999.90;;;;;;;12.65;88.66;95524.75;5072932;28;20226;-60
2021/05/19 04:39:43;;;;;;;1999.90;999.90;;;;;;;13.05;86.45;95533.22;5072652;28;20279;-61
2021/05/19 04:42:10;;;;;;;1999.90;999.90;;;;;;;13.34;84.55;95535.25;5071919;28;20204;-59
2021/05/19 04:44:37;;;;;;;1999.90;999.90;;;;;;;13.34;83.52;95540.47;5072457;28;20581;-61
2021/05/19 04:47:04;;;;;;;1999.90;999.90;;;;;;;13.44;82.31;95534.16;5072818;28;20197;-62
2021/05/19 04:49:32;;;;;;;1999.90;999.90;;;;;;;13.57;79.62;95533.22;5072492;28;20279;-61
2021/05/19 04:51:59;;;;;;;1999.90;999.90;;;;;;;13.39;81.79;95526.50;5072715;28;20636;-60
2021/05/19 04:54:26;;;;;;;1999.90;999.90;;;;;;;13.30;83.05;95529.88;5072277;28;20224;-61
2021/05/19 04:56:53;;;;;;;1999.90;999.90;;;;;;;13.33;79.75;95536.31;5072087;28;20644;-60
2021/05/19 04:59:20;;;;;;;1999.90;999.90;;;;;;;13.35;82.70;95526.31;5072202;28;20284;-60
2021/05/19 05:01:47;;;;;;;1999.90;999.90;;;;;;;13.31;82.80;95531.41;5071931;28;20248;-61
2021/05/19 05:04:14;;;;;;;1999.90;999.90;;;;;;;13.48;82.88;95519.41;5072005;28;20775;-60
2021/05/19 05:06:43;;;;;;;1999.90;999.90;;;;;;;13.29;82.48;95517.16;5072110;28;20192;-60
2021/05/19 05:09:09;;;;;;;1999.90;999.90;;;;;;;13.13;81.74;95521.28;5072056;28;20201;-59
2021/05/19 05:11:36;;;;;;;1999.90;999.90;;;;;;;13.38;80.32;95522.34;5071944;28;20852;-60
2021/05/19 05:14:03;;;;;;;1999.90;999.90;;;;;;;13.28;78.80;95531.25;5071407;28;20654;-60
2021/05/19 05:16:30;;;;;;;1999.90;999.90;;;;;;;13.55;78.60;95525.69;5071750;28;20193;-60
2021/05/19 05:18:57;;;;;;;1999.90;999.90;;;;;;;13.45;76.46;95517.44;5071744;28;20211;-59
2021/05/19 05:21:24;;;;;;;1999.90;999.90;;;;;;;13.58;79.78;95513.84;5071701;28;20330;-62
2021/05/19 05:23:52;;;;;;;1999.90;999.90;;;;;;;13.49;81.52;95515.72;5071546;28;20193;-61
2021/05/19 05:26:19;;;;;;;1999.90;999.90;;;;;;;13.70;77.83;95519.97;5071535;28;20243;-59
2021/05/19 05:28:46;;;;;;;1999.90;999.90;;;;;;;13.54;80.43;95521.56;5071345;28;20196;-60
2021/05/19 05:31:15;;;;;;;1999.90;999.90;;;;;;;13.91;79.29;95511.44;5071541;28;20300;-61
2021/05/19 05:33:46;;;;;;;1999.90;999.90;;;;;;;14.15;75.59;95511.63;5071255;28;20796;-59
2021/05/19 05:36:13;;;;;;;1999.90;999.90;;;;;;;14.39;74.68;95517.09;5071751;28;20220;-59
2021/05/19 05:38:41;;;;;;;1999.90;999.90;;;;;;;14.59;75.44;95518.97;5071382;28;20206;-59
2021/05/19 05:41:08;;;;;;;1999.90;999.90;;;;;;;14.55;72.72;95525.16;5070968;28;20192;-60
2021/05/19 05:43:35;;;;;;;1999.90;999.90;;;;;;;14.56;72.35;95524.84;5071367;28;20659;-60
2021/05/19 05:46:03;;;;;;;1999.90;999.90;;;;;;;14.81;71.55;95517.91;5071423;28;20192;-60
2021/05/19 05:48:30;;;;;;;1999.90;999.90;;;;;;;15.00;73.17;95504.34;5071067;28;20193;-60
2021/05/19 05:50:58;;;;;;;1999.90;999.90;;;;;;;14.94;74.45;95513.50;5070930;28;20257;-60
2021/05/19 05:53:25;;;;;;;1999.90;999.90;;;;;;;14.87;75.33;95511.41;5070157;28;20228;-60
2021/05/19 05:55:52;;;;;;;1999.90;999.90;;;;;;;15.12;75.67;95501.03;5071251;28;20265;-61
2021/05/19 05:58:23;;;;;;;1999.90;999.90;;;;;;;15.46;74.64;95506.72;5071058;28;20740;-60
2021/05/19 06:00:50;;;;;;;1999.90;999.90;;;;;;;15.35;72.64;95518.69;5070986;28;20192;-60
2021/05/19 06:03:16;;;;;;;1999.90;999.90;;;;;;;15.25;72.12;95516.47;5070999;28;20203;-61
2021/05/19 06:05:44;;;;;;;1999.90;999.90;;;;;;;15.33;71.29;95507.00;5070762;28;20232;-60
2021/05/19 06:08:11;;;;;;;1999.90;999.90;;;;;;;15.57;70.01;95507.13;5070918;28;20197;-60
2021/05/19 06:10:38;;;;;;;1999.90;999.90;;;;;;;15.72;67.46;95505.72;5070886;28;20244;-61
2021/05/19 06:13:05;;;;;;;1999.90;999.90;;;;;;;15.80;68.11;95497.75;5070498;28;20228;-61
2021/05/19 06:15:33;;;;;;;1999.90;999.90;;;;;;;16.00;70.06;95498.75;5071051;28;20211;-61
2021/05/19 06:18:00;;;;;;;1999.90;999.90;;;;;;;16.29;70.28;95498.53;5070786;28;20329;-60
2021/05/19 06:20:26;;;;;;;1999.90;999.90;;;;;;;16.28;68.36;95493.66;5070482;28;20745;-60
2021/05/19 06:22:53;;;;;;;1999.90;999.90;;;;;;;16.88;66.86;95495.44;5070548;28;20196;-62
2021/05/19 06:25:20;;;;;;;1999.90;999.90;;;;;;;17.00;65.42;95487.50;5070548;28;20283;-61
2021/05/19 06:27:47;;;;;;;1999.90;999.90;;;;;;;16.77;70.43;95483.84;5070699;28;20193;-61
2021/05/19 06:30:15;;;;;;;1999.90;999.90;;;;;;;16.52;70.10;95490.22;5070713;28;20204;-61
2021/05/19 06:32:43;;;;;;;1999.90;999.90;;;;;;;16.86;69.69;95481.09;5070611;28;20219;-62
2021/05/19 06:35:10;;;;;;;1999.90;999.90;;;;;;;17.17;64.34;95478.59;5070414;28;20193;-61
2021/05/19 06:37:37;;;;;;;1999.90;999.90;;;;;;;17.44;60.38;95466.50;5070352;28;20906;-60
2021/05/19 06:40:06;;;;;;;1999.90;999.90;;;;;;;17.43;62.73;95471.03;5070749;28;20227;-62
2021/05/19 06:42:32;;;;;;;1999.90;999.90;;;;;;;17.06;66.10;95454.66;5070437;28;20298;-61
2021/05/19 06:44:59;;;;;;;1999.90;999.90;;;;;;;16.80;66.35;95449.06;5070219;28;20287;-61
2021/05/19 06:47:26;;;;;;;1999.90;999.90;;;;;;;16.78;66.83;95449.41;5070109;28;20250;-61
2021/05/19 06:49:54;;;;;;;1999.90;999.90;;;;;;;17.31;63.90;95463.19;5070319;28;20208;-62
2021/05/19 06:52:21;;;;;;;1999.90;999.90;;;;;;;17.43;66.41;95459.75;5070156;28;20279;-59
2021/05/19 06:54:48;;;;;;;1999.90;999.90;;;;;;;17.50;66.39;95452.03;5070294;28;20224;-59
2021/05/19 06:57:15;;;;;;;1999.90;999.90;;;;;;;17.55;67.31;95459.66;5070336;28;20194;-62
2021/05/19 06:59:42;;;;;;;1999.90;999.90;;;;;;;17.76;65.95;95449.69;5070262;28;20291;-61
2021/05/19 07:02:09;;;;;;;1999.90;999.90;;;;;;;17.49;65.23;95439.97;5069939;28;20200;-61
2021/05/19 07:04:35;;;;;;;1999.90;999.90;;;;;;;17.01;65.17;95433.91;5069786;28;20283;-61
2021/05/19 07:07:03;;;;;;;1999.90;999.90;;;;;;;17.27;66.71;95436.06;5070145;28;20196;-61
2021/05/19 07:09:30;;;;;;;1999.90;999.90;;;;;;;17.51;64.45;95432.53;5069818;28;20623;-61
2021/05/19 07:11:57;;;;;;;1999.90;999.90;;;;;;;17.58;60.89;95433.47;5069881;28;20680;-60
2021/05/19 07:14:24;;;;;;;1999.90;999.90;;;;;;;17.39;65.20;95430.72;5068495;28;20695;-60
2021/05/19 07:16:53;;;;;;;1999.90;999.90;;;;;;;17.12;65.96;95429.69;5069987;28;20202;-60
2021/05/19 07:19:20;;;;;;;1999.90;999.90;;;;;;;17.23;66.42;95425.47;5070156;28;20200;-61
2021/05/19 07:21:47;;;;;;;1999.90;999.90;;;;;;;17.48;67.32;95407.72;5069752;28;20607;-60
2021/05/19 07:24:15;;;;;;;1999.90;999.90;;;;;;;17.79;64.75;95416.69;5069974;28;20193;-61
2021/05/19 07:26:44;;;;;;;1999.90;999.90;;;;;;;18.27;60.94;95412.91;5069781;28;20189;-61
2021/05/19 07:29:12;;;;;;;1999.90;999.90;;;;;;;18.23;62.98;95402.28;5070132;28;20192;-61
2021/05/19 07:31:39;;;;;;;1999.90;999.90;;;;;;;18.45;60.04;95400.88;5069608;28;20275;-59
2021/05/19 07:34:06;;;;;;;1999.90;999.90;;;;;;;18.69;61.45;95392.72;5069665;28;20224;-61
2021/05/19 07:36:33;;;;;;;1999.90;999.90;;;;;;;19.28;61.95;95388.91;5069745;28;20204;-61
2021/05/19 07:39:00;;;;;;;1999.90;999.90;;;;;;;19.74;60.36;95395.72;5069787;28;20197;-61
2021/05/19 07:41:28;;;;;;;1999.90;999.90;;;;;;;19.94;56.37;95379.78;5070155;28;20231;-63
2021/05/19 07:43:55;;;;;;;1999.90;999.90;;;;;;;19.87;54.93;95382.34;5069501;28;20196;-63
2021/05/19 07:46:22;;;;;;;1999.90;999.90;;;;;;;20.18;53.63;95374.84;5069916;28;20265;-60
2021/05/19 07:48:49;;;;;;;1999.90;999.90;;;;;;;20.04;48.73;95371.28;5069819;28;20224;-61
2021/05/19 07:51:16;;;;;;;1999.90;999.90;;;;;;;20.12;48.75;95370.28;5069596;28;20192;-60
2021/05/19 07:53:43;;;;;;;1999.90;999.90;;;;;;;19.94;49.84;95367.38;5069751;28;20224;-60
2021/05/19 07:56:14;;;;;;;1999.90;999.90;;;;;;;20.07;45.37;95378.50;5069489;28;20235;-62
2021/05/19 07:58:46;;;;;;;1999.90;999.90;;;;;;;20.20;48.77;95366.59;5069590;28;20722;-63
2021/05/19 08:01:24;;;;;;;1999.90;999.90;;;;;;;20.13;47.63;95366.50;5069812;28;20189;-61
2021/05/19 08:03:51;;;;;;;1999.90;999.90;;;;;;;20.19;49.06;95360.56;5069624;28;20679;-60
2021/05/19 08:06:18;;;;;;;1999.90;999.90;;;;;;;19.91;50.24;95360.19;5069436;28;20188;-63
2021/05/19 08:08:46;;;;;;;1999.90;999.90;;;;;;;19.63;49.83;95363.16;5069448;28;20197;-61
2021/05/19 08:11:15;;;;;;;1999.90;999.90;;;;;;;19.16;50.89;95360.09;5069387;28;20192;-59
2021/05/19 08:13:44;;;;;;;1999.90;999.90;;;;;;;19.67;51.08;95353.44;5069213;28;20232;-60
2021/05/19 08:16:11;;;;;;;1999.90;999.90;;;;;;;19.72;50.20;95355.00;5070096;28;20188;-60
2021/05/19 08:18:38;;;;;;;1999.90;999.90;;;;;;;19.78;51.38;95350.94;5073096;28;20215;-61
2021/05/19 08:21:05;;;;;;;1999.90;999.90;;;;;;;20.21;52.84;95344.38;5072855;28;20217;-60
2021/05/19 08:23:32;;;;;;;1999.90;999.90;;;;;;;20.37;50.47;95350.25;5072872;28;20283;-62
2021/05/19 08:25:59;;;;;;;1999.90;999.90;;;;;;;20.30;49.71;95344.84;5072977;28;20321;-61
2021/05/19 08:28:26;;;;;;;1999.90;999.90;;;;;;;20.55;46.86;95337.25;5072717;28;20715;-61
2021/05/19 08:30:54;;;;;;;1999.90;999.90;;;;;;;20.50;48.62;95330.41;5072783;28;20200;-60
2021/05/19 08:33:21;;;;;;;1999.90;999.90;;;;;;;20.13;49.58;95332.94;5072770;28;20254;-63
2021/05/19 08:35:47;;;;;;;1999.90;999.90;;;;;;;20.28;51.75;95323.34;5072885;28;20542;-62
2021/05/19 08:38:14;;;;;;;1999.90;999.90;;;;;;;20.64;48.67;95316.59;5072460;28;20192;-60
2021/05/19 08:40:41;;;;;;;1999.90;999.90;;;;;;;20.51;49.54;95316.09;5072580;28;20674;-60
2021/05/19 08:43:11;;;;;;;1999.90;999.90;;;;;;;20.48;48.39;95316.81;5072511;28;20208;-60
2021/05/19 08:45:38;;;;;;;1999.90;999.90;;;;;;;20.58;49.35;95321.44;5072939;28;20704;-60
2021/05/19 08:48:08;;;;;;;1999.90;999.90;;;;;;;20.57;48.12;95316.53;5072725;28;20660;-61
2021/05/19 08:50:37;;;;;;;1999.90;999.90;;;;;;;20.30;48.91;95315.06;5072355;28;20682;-60
2021/05/19 08:53:08;;;;;;;1999.90;999.90;;;;;;;20.36;53.93;95313.66;5072142;28;20319;-61
2021/05/19 08:55:35;;;;;;;1999.90;999.90;;;;;;;20.24;50.60;95306.69;5072950;28;20567;-61
2021/05/19 08:58:02;;;;;;;1999.90;999.90;;;;;;;20.51;49.12;95320.63;5072203;28;20189;-61
2021/05/19 09:00:30;;;;;;;1999.90;999.90;;;;;;;20.40;51.69;95319.72;5072133;28;20674;-61
2021/05/19 09:03:09;;;;;;;1999.90;999.90;;;;;;;20.68;52.56;95324.56;5072099;28;20667;-61
2021/05/19 09:05:41;;;;;;;1999.90;999.90;;;;;;;21.07;47.74;95309.09;5072019;28;20235;-60
2021/05/19 09:08:10;;;;;;;1999.90;999.90;;;;;;;21.33;47.83;95306.31;5071992;28;20189;-60
2021/05/19 09:10:40;;;;;;;1999.90;999.90;;;;;;;21.67;48.30;95309.59;5072342;28;20291;-60
2021/05/19 09:13:07;;;;;;;1999.90;999.90;;;;;;;21.48;48.63;95302.66;5071524;28;20224;-61
2021/05/19 09:15:48;;;;;;;1999.90;999.90;;;;;;;21.64;48.44;95305.03;5071865;28;20346;-60
2021/05/19 09:18:16;;;;;;;1999.90;999.90;;;;;;;21.50;47.48;95299.66;5071925;28;20249;-60
2021/05/19 09:20:44;;;;;;;1999.90;999.90;;;;;;;21.20;46.28;95290.00;5071637;28;20286;-60
2021/05/19 09:23:16;;;;;;;1999.90;999.90;;;;;;;21.28;48.96;95296.84;5071553;28;20287;-62
2021/05/19 09:25:44;;;;;;;1999.90;999.90;;;;;;;21.30;49.11;95286.66;5071835;28;20215;-61
2021/05/19 09:28:23;;;;;;;1999.90;999.90;;;;;;;21.70;48.30;95287.69;5071711;28;20204;-61
2021/05/19 09:30:50;;;;;;;1999.90;999.90;;;;;;;21.93;45.53;95282.91;5071820;28;20219;-60
2021/05/19 09:33:21;;;;;;;1999.90;999.90;;;;;;;22.19;48.49;95277.38;5071540;28;20740;-60
2021/05/19 09:36:14;;;;;;;1999.90;999.90;;;;;;;22.54;46.16;95271.44;5071518;28;20245;-61
2021/05/19 09:38:41;;;;;;;1999.90;999.90;;;;;;;22.97;43.96;95266.97;5071404;28;20192;-62
2021/05/19 09:41:16;;;;;;;1999.90;999.90;;;;;;;23.17;42.16;95260.16;5071325;28;20204;-59
2021/05/19 09:43:43;;;;;;;1999.90;999.90;;;;;;;23.00;42.66;95265.47;5071485;28;20195;-61
2021/05/19 09:46:17;;;;;;;1999.90;999.90;;;;;;;23.02;43.57;95263.97;5071224;28;20671;-60
2021/05/19 09:48:45;;;;;;;1999.90;999.90;;;;;;;23.04;40.24;95260.94;5071188;28;20204;-59
2021/05/19 09:51:26;;;;;;;1999.90;999.90;;;;;;;22.98;40.35;95257.91;5071129;28;20196;-60
2021/05/19 09:53:53;;;;;;;1999.90;999.90;;;;;;;23.21;41.35;95252.25;5071452;28;20235;-60
2021/05/19 09:56:21;;;;;;;1999.90;999.90;;;;;;;23.38;42.19;95253.34;5070980;28;20193;-61
2021/05/19 09:58:48;;;;;;;1999.90;999.90;;;;;;;23.77;40.71;95246.09;5071210;28;20868;-62
2021/05/19 10:01:15;;;;;;;1999.90;999.90;;;;;;;24.16;41.20;95242.56;5071028;28;20201;-61
2021/05/19 10:03:43;;;;;;;1999.90;999.90;;;;;;;24.20;40.61;95244.09;5071058;28;20309;-61
2021/05/19 10:06:17;;;;;;;1999.90;999.90;;;;;;;24.27;39.05;95232.66;5070813;28;20668;-61
2021/05/19 10:08:44;;;;;;;1999.90;999.90;;;;;;;24.30;38.65;95231.91;5071109;28;20196;-61
2021/05/19 10:11:13;;;;;;;1999.90;999.90;;;;;;;24.29;40.35;95230.38;5070593;28;20203;-60
2021/05/19 10:13:43;;;;;;;1999.90;999.90;;;;;;;23.91;38.66;95227.47;5070552;28;20239;-61
2021/05/19 10:16:15;;;;;;;1999.90;999.90;;;;;;;24.05;37.25;95220.59;5070545;28;20203;-61
2021/05/19 10:18:48;;;;;;;1999.90;999.90;;;;;;;24.05;41.88;95223.25;5070706;28;20672;-62
2021/05/19 10:21:17;;;;;;;1999.90;999.90;;;;;;;24.17;42.67;95226.25;5070991;28;20220;-60
2021/05/19 10:24:02;;;;;;;1999.90;999.90;;;;;;;24.42;41.17;95210.19;5070828;28;20300;-60
2021/05/19 10:26:30;;;;;;;1999.90;999.90;;;;;;;24.68;39.65;95211.53;5070854;28;20200;-61
2021/05/19 10:28:58;;;;;;;1999.90;999.90;;;;;;;24.60;37.44;95207.44;5070484;28;20275;-61
2021/05/19 10:31:31;;;;;;;1999.90;999.90;;;;;;;24.78;37.74;95203.50;5070529;28;20193;-61
2021/05/19 10:33:59;;;;;;;1999.90;999.90;;;;;;;24.89;37.42;95208.00;5070418;28;20289;-60
2021/05/19 10:36:43;;;;;;;1999.90;999.90;;;;;;;24.81;36.46;95194.72;5070430;28;20276;-61
2021/05/19 10:39:26;;;;;;;1999.90;999.90;;;;;;;24.88;36.35;95195.84;5069758;28;20192;-62
2021/05/19 10:41:55;;;;;;;1999.90;999.90;;;;;;;25.02;36.86;95180.53;5070426;28;20196;-60
2021/05/19 10:44:24;;;;;;;1999.90;999.90;;;;;;;24.56;39.12;95190.75;5070673;28;20197;-61
2021/05/19 10:47:01;;;;;;;1999.90;999.90;;;;;;;24.57;36.45;95193.00;5070625;28;20196;-60
2021/05/19 10:58:50;;;;;;;1999.90;999.90;;;;;;;25.79;36.51;95156.97;5070075;28;20279;-60
2021/05/19 11:01:18;;;;;;;1999.90;999.90;;;;;;;25.60;34.31;95149.59;5070089;28;20282;-61
2021/05/19 11:04:15;;;;;;;1999.90;999.90;;;;;;;25.41;37.31;95148.22;5070328;28;20221;-61
2021/05/19 11:07:08;;;;;;;1999.90;999.90;;;;;;;25.33;41.34;95144.13;5070384;28;20216;-60
2021/05/19 11:09:41;;;;;;;1999.90;999.90;;;;;;;25.40;40.51;95157.38;5069963;28;20242;-61
2021/05/19 11:12:46;;;;;;;1999.90;999.90;;;;;;;25.44;38.34;95149.34;5070048;28;20222;-60